createdAt,value
2022-12-13T00:00:54.428Z,18.40
2022-12-13T00:03:42.084Z,15.67
2022-12-13T00:06:31.129Z,19.13
2022-12-13T00:09:21.521Z,17.77
2022-12-13T00:12:10.781Z,17.75
2022-12-13T00:15:01.284Z,18.92
2022-12-13T00:17:48.627Z,18.58
2022-12-13T00:20:40.370Z,18.05
2022-12-13T00:23:30.250Z,18.63
2022-12-13T00:26:22.498Z,17.10
2022-12-13T00:29:12.682Z,18.95
2022-12-13T00:32:01.374Z,19.10
2022-12-13T00:34:49.156Z,16.92
2022-12-13T00:37:38.472Z,18.92
2022-12-13T00:40:29.952Z,19.10
2022-12-13T00:43:18.910Z,17.20
2022-12-13T00:46:19.046Z,19.02
2022-12-13T00:49:07.458Z,19.52
2022-12-13T00:51:54.555Z,20.27
2022-12-13T00:54:42.284Z,18.60
2022-12-13T00:57:29.586Z,18.10
2022-12-13T01:00:21.575Z,19.42
2022-12-13T01:03:22.119Z,17.52
2022-12-13T01:06:18.328Z,21.90
2022-12-13T01:09:08.665Z,18.23
2022-12-13T01:12:03.093Z,16.80
2022-12-13T01:14:55.924Z,18.92
2022-12-13T01:17:49.196Z,17.00
2022-12-13T01:20:37.410Z,19.50
2022-12-13T01:23:26.748Z,20.33
2022-12-13T01:29:21.110Z,19.05
2022-12-13T01:32:10.153Z,19.30
2022-12-13T01:34:58.442Z,19.75
2022-12-13T01:37:46.315Z,18.45
2022-12-13T01:40:38.696Z,19.23
2022-12-13T01:43:55.092Z,18.02
2022-12-13T01:46:42.222Z,19.27
2022-12-13T01:49:29.893Z,20.10
2022-12-13T01:52:17.860Z,18.13
2022-12-13T01:55:07.856Z,17.15
2022-12-13T01:57:58.233Z,17.98
2022-12-13T02:00:46.592Z,17.60
2022-12-13T02:03:34.937Z,18.30
2022-12-13T02:06:40.689Z,18.38
2022-12-13T02:09:28.659Z,17.92
2022-12-13T02:12:16.159Z,18.58
2022-12-13T02:15:11.684Z,15.43
2022-12-13T02:18:10.923Z,19.80
2022-12-13T02:21:05.373Z,17.70
2022-12-13T02:24:08.802Z,20.50
2022-12-13T02:27:15.660Z,18.63
2022-12-13T02:30:52.196Z,16.85
2022-12-13T02:33:42.216Z,17.42
2022-12-13T02:36:46.567Z,17.70
2022-12-13T02:39:40.033Z,20.00
2022-12-13T02:42:37.412Z,18.52
2022-12-13T02:45:34.644Z,18.33
2022-12-13T02:48:32.535Z,15.60
2022-12-13T02:51:21.805Z,17.27
2022-12-13T02:54:09.341Z,16.90
2022-12-13T02:56:58.607Z,18.27
2022-12-13T02:59:46.637Z,18.98
2022-12-13T03:02:43.333Z,17.80
2022-12-13T03:05:49.587Z,17.83
2022-12-13T03:08:42.680Z,17.83
2022-12-13T03:11:51.261Z,17.88
2022-12-13T03:14:48.065Z,18.48
2022-12-13T03:17:41.519Z,17.83
2022-12-13T03:20:29.923Z,18.50
2022-12-13T03:23:19.209Z,19.13
2022-12-13T03:26:11.205Z,18.20
2022-12-13T03:28:59.360Z,21.40
2022-12-13T03:31:47.171Z,19.88
2022-12-13T03:34:43.581Z,19.58
2022-12-13T03:37:33.867Z,19.23
2022-12-13T03:40:21.939Z,19.48
2022-12-13T03:43:09.322Z,19.52
2022-12-13T03:45:56.677Z,20.95
2022-12-13T03:48:43.927Z,19.80
2022-12-13T03:51:31.125Z,18.80
2022-12-13T03:54:19.007Z,19.90
2022-12-13T03:57:06.235Z,18.33
2022-12-13T03:59:53.402Z,23.20
2022-12-13T04:02:41.079Z,18.30
2022-12-13T04:05:28.800Z,20.60
2022-12-13T04:08:22.475Z,19.75
2022-12-13T04:11:45.214Z,19.02
2022-12-13T04:14:32.421Z,19.85
2022-12-13T04:17:19.940Z,21.83
2022-12-13T04:20:07.683Z,21.40
2022-12-13T04:22:55.395Z,20.23
2022-12-13T04:25:44.624Z,18.83
2022-12-13T04:28:31.829Z,20.58
2022-12-13T04:31:19.045Z,19.80
2022-12-13T04:34:06.394Z,22.33
2022-12-13T04:36:54.002Z,23.17
2022-12-13T04:39:41.170Z,19.35
2022-12-13T04:42:35.767Z,30.70
2022-12-13T04:45:23.225Z,25.50
2022-12-13T04:48:10.501Z,25.52
2022-12-13T04:50:57.716Z,23.30
2022-12-13T04:53:48.460Z,22.70
2022-12-13T04:56:35.665Z,21.25
2022-12-13T04:59:22.857Z,21.40
2022-12-13T05:02:11.073Z,22.15
2022-12-13T05:04:58.792Z,22.00
2022-12-13T05:07:46.366Z,22.77
2022-12-13T05:10:38.044Z,22.35
2022-12-13T05:13:25.647Z,20.10
2022-12-13T05:16:13.207Z,23.63
2022-12-13T05:19:00.387Z,21.30
2022-12-13T05:21:48.600Z,21.38
2022-12-13T05:24:35.806Z,22.67
2022-12-13T05:27:23.681Z,20.83
2022-12-13T05:30:14.090Z,23.85
2022-12-13T05:33:01.264Z,26.88
2022-12-13T05:35:48.389Z,22.63
2022-12-13T05:38:36.311Z,21.55
2022-12-13T05:41:25.111Z,20.98
2022-12-13T05:44:13.504Z,23.80
2022-12-13T05:47:03.978Z,19.48
2022-12-13T05:49:52.176Z,22.95
2022-12-13T05:52:40.101Z,22.15
2022-12-13T05:55:27.284Z,20.48
2022-12-13T05:58:16.658Z,23.30
2022-12-13T06:01:12.996Z,20.85
2022-12-13T06:04:00.855Z,21.20
2022-12-13T06:06:48.302Z,22.70
2022-12-13T06:09:39.869Z,22.88
2022-12-13T06:12:31.411Z,20.48
2022-12-13T06:15:22.223Z,21.67
2022-12-13T06:18:10.133Z,21.55
2022-12-13T06:20:58.627Z,20.88
2022-12-13T06:23:45.840Z,19.92
2022-12-13T06:26:33.960Z,23.08
2022-12-13T06:29:25.495Z,20.77
2022-12-13T06:32:13.907Z,22.05
2022-12-13T06:35:01.159Z,22.80
2022-12-13T06:38:11.891Z,23.98
2022-12-13T06:41:17.000Z,22.52
2022-12-13T06:44:05.310Z,25.45
2022-12-13T06:46:52.468Z,23.08
2022-12-13T06:49:58.427Z,24.85
2022-12-13T06:52:53.252Z,22.80
2022-12-13T06:55:40.490Z,25.63
2022-12-13T06:58:27.660Z,23.83
2022-12-13T07:01:24.116Z,22.27
2022-12-13T07:04:29.519Z,21.20
2022-12-13T07:07:18.813Z,23.08
2022-12-13T07:10:06.384Z,22.23
2022-12-13T07:13:02.798Z,20.55
2022-12-13T07:15:50.974Z,20.27
2022-12-13T07:18:38.427Z,23.33
2022-12-13T07:21:25.955Z,21.85
2022-12-13T07:24:13.492Z,19.80
2022-12-13T07:27:00.646Z,21.17
2022-12-13T07:29:47.864Z,22.42
2022-12-13T07:32:35.114Z,23.00
2022-12-13T07:35:22.375Z,23.90
2022-12-13T07:38:11.686Z,21.73
2022-12-13T07:40:59.041Z,21.77
2022-12-13T07:43:46.982Z,23.00
2022-12-13T07:46:34.736Z,21.65
2022-12-13T07:49:22.446Z,19.80
2022-12-13T07:52:12.516Z,22.38
2022-12-13T07:54:59.720Z,22.55
2022-12-13T07:57:48.502Z,22.02
2022-12-13T08:00:37.393Z,22.55
2022-12-13T08:03:26.452Z,21.50
2022-12-13T08:06:14.428Z,22.92
2022-12-13T08:09:01.879Z,21.00
2022-12-13T08:11:49.544Z,20.50
2022-12-13T08:14:36.756Z,21.95
2022-12-13T08:17:28.219Z,18.35
2022-12-13T08:20:22.353Z,20.75
2022-12-13T08:23:10.843Z,22.00
2022-12-13T08:25:58.486Z,19.25
2022-12-13T08:28:46.859Z,20.83
2022-12-13T08:31:34.261Z,20.42
2022-12-13T08:34:21.481Z,21.08
2022-12-13T08:37:09.563Z,22.92
2022-12-13T08:39:56.727Z,21.38
2022-12-13T08:42:43.896Z,22.67
2022-12-13T08:45:34.229Z,22.73
2022-12-13T08:48:22.179Z,20.70
2022-12-13T08:51:12.929Z,23.08
2022-12-13T08:54:10.783Z,22.83
2022-12-13T08:56:58.593Z,23.48
2022-12-13T08:59:46.231Z,21.77
2022-12-13T09:02:38.034Z,23.23
2022-12-13T09:05:33.580Z,24.05
2022-12-13T09:08:23.928Z,21.95
2022-12-13T09:11:32.935Z,20.80
2022-12-13T09:14:23.662Z,21.07
2022-12-13T09:17:14.921Z,21.08
2022-12-13T09:20:28.716Z,23.52
2022-12-13T09:23:23.462Z,22.10
2022-12-13T09:26:16.288Z,23.37
2022-12-13T09:29:11.436Z,22.03
2022-12-13T09:31:58.900Z,23.00
2022-12-13T09:34:47.574Z,22.43
2022-12-13T09:37:34.807Z,23.00
2022-12-13T09:40:27.452Z,23.30
2022-12-13T09:43:31.285Z,22.60
2022-12-13T09:46:34.787Z,24.50
2022-12-13T09:49:52.100Z,20.80
2022-12-13T09:52:43.230Z,24.30
2022-12-13T09:55:41.619Z,23.50
2022-12-13T09:58:35.000Z,23.90
2022-12-13T10:01:23.846Z,22.70
2022-12-13T10:04:19.040Z,24.00
2022-12-13T10:07:17.406Z,23.60
2022-12-13T10:10:05.239Z,22.43
2022-12-13T10:13:10.468Z,24.63
2022-12-13T10:16:04.755Z,22.30
2022-12-13T10:18:52.321Z,25.60
2022-12-13T10:21:43.376Z,24.70
2022-12-13T10:25:03.569Z,23.40
2022-12-13T10:27:51.214Z,22.63
2022-12-13T10:30:46.696Z,25.23
2022-12-13T10:33:37.216Z,24.37
2022-12-13T10:36:35.961Z,26.20
2022-12-13T10:39:41.547Z,24.77
2022-12-13T10:42:33.861Z,26.17
2022-12-13T10:45:23.486Z,24.33
2022-12-13T10:48:22.616Z,22.37
2022-12-13T10:51:12.993Z,26.30
2022-12-13T10:54:00.803Z,25.20
2022-12-13T10:56:53.992Z,24.47
2022-12-13T10:59:41.421Z,25.67
2022-12-13T11:02:38.004Z,22.97
2022-12-13T11:05:31.368Z,24.70
2022-12-13T11:08:27.111Z,24.73
2022-12-13T11:11:18.539Z,23.93
2022-12-13T11:14:05.861Z,23.87
2022-12-13T11:16:57.722Z,26.90
2022-12-13T11:19:48.278Z,22.63
2022-12-13T11:22:38.657Z,25.00
2022-12-13T11:25:30.150Z,25.17
2022-12-13T11:28:42.920Z,26.40
2022-12-13T11:31:58.934Z,24.37
2022-12-13T11:35:13.615Z,22.93
2022-12-13T11:38:12.656Z,23.80
2022-12-13T11:41:31.712Z,22.70
2022-12-13T11:44:48.501Z,24.73
2022-12-13T11:47:58.462Z,25.43
2022-12-13T11:50:49.154Z,22.50
2022-12-13T11:53:44.369Z,25.63
2022-12-13T11:56:38.985Z,23.00
2022-12-13T11:59:42.499Z,22.57
2022-12-13T12:02:40.341Z,24.97
2022-12-13T12:05:32.914Z,27.37
2022-12-13T12:08:37.329Z,24.73
2022-12-13T12:11:34.425Z,22.53
2022-12-13T12:14:35.891Z,25.30
2022-12-13T12:17:25.226Z,23.53
2022-12-13T12:20:23.445Z,25.13
2022-12-13T12:23:31.904Z,25.43
2022-12-13T12:26:36.997Z,25.03
2022-12-13T12:29:39.226Z,23.97
2022-12-13T12:32:34.365Z,22.73
2022-12-13T12:35:28.189Z,23.27
2022-12-13T12:38:29.580Z,24.00
2022-12-13T12:41:20.558Z,22.97
2022-12-13T12:44:30.741Z,25.30
2022-12-13T12:48:46.289Z,23.77
2022-12-13T12:51:13.654Z,24.30
2022-12-13T12:54:42.639Z,23.90
2022-12-13T12:57:39.917Z,23.60
2022-12-13T13:00:31.124Z,22.10
2022-12-13T13:03:31.544Z,24.40
2022-12-13T13:06:22.215Z,23.40
2022-12-13T13:09:12.953Z,23.40
2022-12-13T13:12:29.536Z,25.80
2022-12-13T13:15:40.863Z,23.03
2022-12-13T13:18:48.188Z,25.10
2022-12-13T13:21:44.956Z,27.30
2022-12-13T13:24:34.717Z,25.50
2022-12-13T13:27:32.941Z,24.23
2022-12-13T13:30:20.145Z,27.47
2022-12-13T13:33:43.265Z,23.00
2022-12-13T13:36:39.239Z,26.47
2022-12-13T13:39:29.484Z,24.40
2022-12-13T13:42:21.651Z,22.27
2022-12-13T13:45:19.128Z,28.20
2022-12-13T13:48:37.020Z,25.50
2022-12-13T13:52:16.825Z,27.50
2022-12-13T13:55:15.448Z,25.70
2022-12-13T13:58:21.737Z,25.20
2022-12-13T14:02:01.077Z,28.17
2022-12-13T14:05:03.373Z,26.20
2022-12-13T14:08:20.324Z,29.53
2022-12-13T14:11:21.641Z,45.67
2022-12-13T14:14:27.363Z,39.23
2022-12-13T14:17:45.481Z,35.97
2022-12-13T14:20:47.601Z,31.60
2022-12-13T14:23:48.945Z,32.00
2022-12-13T14:27:02.463Z,35.97
2022-12-13T14:29:57.786Z,33.40
2022-12-13T14:32:47.637Z,32.60
2022-12-13T14:35:34.777Z,28.87
2022-12-13T14:38:31.045Z,42.23
2022-12-13T14:41:19.775Z,29.50
2022-12-13T14:44:09.766Z,33.93
2022-12-13T14:47:00.766Z,31.40
2022-12-13T14:49:53.914Z,30.23
2022-12-13T14:52:41.303Z,35.43
2022-12-13T14:55:33.914Z,61.43
2022-12-13T14:58:22.179Z,33.80
2022-12-13T15:01:32.244Z,34.30
2022-12-13T15:04:27.485Z,36.37
2022-12-13T15:07:50.105Z,39.30
2022-12-13T15:10:37.689Z,36.60
2022-12-13T15:13:42.855Z,36.77
2022-12-13T15:16:30.189Z,32.30
2022-12-13T15:19:30.760Z,34.07
2022-12-13T15:22:20.558Z,36.03
2022-12-13T15:25:13.692Z,27.83
2022-12-13T15:28:01.297Z,36.80
2022-12-13T15:30:49.350Z,38.90
2022-12-13T15:33:42.548Z,38.77
2022-12-13T15:36:38.836Z,53.77
2022-12-13T15:39:26.908Z,36.73
2022-12-13T15:42:32.245Z,46.80
2022-12-13T15:45:30.400Z,30.53
2022-12-13T15:48:22.045Z,36.50
2022-12-13T15:51:13.047Z,31.73
2022-12-13T15:54:21.914Z,27.13
2022-12-13T15:57:29.412Z,28.13
2022-12-13T16:00:31.062Z,34.77
2022-12-13T16:03:22.654Z,26.83
2022-12-13T16:06:18.054Z,26.27
2022-12-13T16:09:07.929Z,24.63
2022-12-13T16:12:06.875Z,23.80
2022-12-13T16:15:29.092Z,27.43
2022-12-13T16:18:21.010Z,25.50
2022-12-13T16:21:14.585Z,26.13
2022-12-13T16:24:01.902Z,25.50
2022-12-13T16:26:49.304Z,26.53
2022-12-13T16:29:36.630Z,24.97
2022-12-13T16:32:23.878Z,26.13
2022-12-13T16:35:11.173Z,25.47
2022-12-13T16:37:59.157Z,24.70
2022-12-13T16:40:49.717Z,27.63
2022-12-13T16:43:48.008Z,25.40
2022-12-13T16:47:18.214Z,25.93
2022-12-13T16:49:42.706Z,24.07
2022-12-13T16:52:29.853Z,26.50
2022-12-13T16:55:17.214Z,24.50
2022-12-13T16:58:11.904Z,22.83
2022-12-13T17:01:00.102Z,24.67
2022-12-13T17:03:47.960Z,24.77
2022-12-13T17:06:35.090Z,27.97
2022-12-13T17:09:23.807Z,25.30
2022-12-13T17:12:11.098Z,25.37
2022-12-13T17:15:15.168Z,25.10
2022-12-13T17:18:02.446Z,23.20
2022-12-13T17:20:58.861Z,23.90
2022-12-13T17:24:12.664Z,24.63
2022-12-13T17:27:00.100Z,24.50
2022-12-13T17:29:50.316Z,23.93
2022-12-13T17:32:37.508Z,23.60
2022-12-13T17:35:27.198Z,22.10
2022-12-13T17:38:14.392Z,23.63
2022-12-13T17:41:02.134Z,22.30
2022-12-13T17:43:49.698Z,22.07
2022-12-13T17:46:37.019Z,22.40
2022-12-13T17:49:25.521Z,22.93
2022-12-13T17:52:13.002Z,25.67
2022-12-13T17:55:01.219Z,19.40
2022-12-13T17:57:48.333Z,21.47
2022-12-13T18:00:37.560Z,22.30
2022-12-13T18:03:25.763Z,19.40
2022-12-13T18:06:13.247Z,21.53
2022-12-13T18:09:00.825Z,18.50
2022-12-13T18:11:48.360Z,20.50
2022-12-13T18:14:38.813Z,20.50
2022-12-13T18:17:46.615Z,19.67
2022-12-13T18:20:35.887Z,19.60
2022-12-13T18:23:23.480Z,19.57
2022-12-13T18:26:14.289Z,20.10
2022-12-13T18:29:01.965Z,18.10
2022-12-13T18:31:49.675Z,20.07
2022-12-13T18:34:36.878Z,21.10
2022-12-13T18:37:24.396Z,18.97
2022-12-13T18:40:11.679Z,19.67
2022-12-13T18:42:59.228Z,19.83
2022-12-13T18:45:46.780Z,17.43
2022-12-13T18:48:34.548Z,18.53
2022-12-13T18:51:24.071Z,18.00
2022-12-13T18:54:11.347Z,19.67
2022-12-13T18:56:58.972Z,19.00
2022-12-13T18:59:54.277Z,18.57
2022-12-13T19:02:42.673Z,19.50
2022-12-13T19:05:30.398Z,19.57
2022-12-13T19:08:17.552Z,18.10
2022-12-13T19:11:05.838Z,20.10
2022-12-13T19:13:53.363Z,18.93
2022-12-13T19:16:41.031Z,18.73
2022-12-13T19:19:28.258Z,19.03
2022-12-13T19:22:16.001Z,19.37
2022-12-13T19:25:04.662Z,21.27
2022-12-13T19:27:56.648Z,20.87
2022-12-13T19:30:46.208Z,19.83
2022-12-13T19:33:33.936Z,18.73
2022-12-13T19:36:21.134Z,19.47
2022-12-13T19:39:10.657Z,20.10
2022-12-13T19:41:58.858Z,19.47
2022-12-13T19:44:46.091Z,19.03
2022-12-13T19:47:34.233Z,17.37
2022-12-13T19:50:21.829Z,18.73
2022-12-13T19:53:11.711Z,17.90
2022-12-13T19:55:59.032Z,17.43
2022-12-13T19:58:48.771Z,19.40
2022-12-13T20:01:35.914Z,17.93
2022-12-13T20:04:23.128Z,20.80
2022-12-13T20:07:11.678Z,18.00
2022-12-13T20:09:59.258Z,19.20
2022-12-13T20:12:50.178Z,21.13
2022-12-13T20:15:38.352Z,21.23
2022-12-13T20:18:28.454Z,18.47
2022-12-13T20:21:15.952Z,18.13
2022-12-13T20:24:03.404Z,18.40
2022-12-13T20:26:50.650Z,20.50
2022-12-13T20:29:38.504Z,25.80
2022-12-13T20:32:26.292Z,24.20
2022-12-13T20:35:14.146Z,21.93
2022-12-13T20:38:03.349Z,20.80
2022-12-13T20:40:50.496Z,17.87
2022-12-13T20:43:37.874Z,17.57
2022-12-13T20:46:26.902Z,18.20
2022-12-13T20:49:14.161Z,19.20
2022-12-13T20:52:01.399Z,19.93
2022-12-13T20:54:48.861Z,18.20
2022-12-13T20:57:36.078Z,20.20
2022-12-13T21:00:23.232Z,19.47
2022-12-13T21:03:10.582Z,18.80
2022-12-13T21:05:57.792Z,18.90
2022-12-13T21:09:00.169Z,19.53
2022-12-13T21:11:49.767Z,20.37
2022-12-13T21:14:37.378Z,20.17
2022-12-13T21:17:24.905Z,21.30
2022-12-13T21:20:12.130Z,19.80
2022-12-13T21:22:59.588Z,19.00
2022-12-13T21:25:48.087Z,20.27
2022-12-13T21:28:35.673Z,19.40
2022-12-13T21:31:23.926Z,20.13
2022-12-13T21:34:12.077Z,16.90
2022-12-13T21:36:59.468Z,18.33
2022-12-13T21:39:47.055Z,16.57
2022-12-13T21:42:34.352Z,18.30
2022-12-13T21:45:22.988Z,16.93
2022-12-13T21:48:11.716Z,17.40
2022-12-13T21:50:59.244Z,16.70
2022-12-13T21:53:48.095Z,17.27
2022-12-13T21:56:54.389Z,17.00
2022-12-13T21:59:41.521Z,18.60
2022-12-13T22:02:29.769Z,18.87
2022-12-13T22:05:17.345Z,16.53
2022-12-13T22:08:06.484Z,16.50
2022-12-13T22:11:17.761Z,18.60
2022-12-13T22:14:08.283Z,17.07
2022-12-13T22:16:56.693Z,18.20
2022-12-13T22:19:44.411Z,18.30
2022-12-13T22:22:38.874Z,18.00
2022-12-13T22:25:27.248Z,18.30
2022-12-13T22:28:15.797Z,17.07
2022-12-13T22:31:03.530Z,17.30
2022-12-13T22:33:50.639Z,17.20
2022-12-13T22:36:39.780Z,17.53
2022-12-13T22:39:27.891Z,18.57
2022-12-13T22:42:17.049Z,18.20
2022-12-13T22:45:06.572Z,16.33
2022-12-13T22:47:54.857Z,17.10
2022-12-13T22:50:42.692Z,17.10
2022-12-13T22:53:31.221Z,19.43
2022-12-13T22:56:21.863Z,16.60
2022-12-13T22:59:09.751Z,16.57
2022-12-13T23:02:02.696Z,16.87
2022-12-13T23:04:51.261Z,16.40
2022-12-13T23:07:39.380Z,14.77
2022-12-13T23:10:47.003Z,15.63
2022-12-13T23:13:34.648Z,15.27
2022-12-13T23:16:25.200Z,15.77
2022-12-13T23:19:41.032Z,14.43
2022-12-13T23:22:27.170Z,16.87
2022-12-13T23:25:15.878Z,16.47
2022-12-13T23:28:04.401Z,15.20
2022-12-13T23:34:01.032Z,13.73
2022-12-13T23:36:49.049Z,16.57
2022-12-13T23:39:36.854Z,15.90
2022-12-13T23:42:25.541Z,15.80
2022-12-13T23:45:13.089Z,14.57
2022-12-13T23:48:00.891Z,15.40
2022-12-13T23:50:48.062Z,14.87
2022-12-13T23:53:37.121Z,14.70
2022-12-13T23:56:24.908Z,17.13
2022-12-13T23:59:13.124Z,14.97
